createdAt,value
2022-08-04T00:03:39.823Z,100757.91
2022-08-04T00:24:13.308Z,100758.84
2022-08-04T00:41:04.799Z,100748.94
2022-08-04T00:44:30.495Z,100748.19
2022-08-04T00:47:59.786Z,100749.03
2022-08-04T00:52:58.289Z,100745.22
2022-08-04T00:56:27.808Z,100748.19
2022-08-04T01:00:38.686Z,100740.09
2022-08-04T01:04:34.964Z,100749.13
2022-08-04T01:14:55.063Z,100747.00
2022-08-04T01:18:03.480Z,100745.28
2022-08-04T01:21:12.348Z,100750.13
2022-08-04T01:25:08.239Z,100743.75
2022-08-04T01:28:17.689Z,100751.19
2022-08-04T01:30:58.470Z,100744.78
2022-08-04T01:34:03.192Z,100751.44
2022-08-04T01:37:35.151Z,100750.47
2022-08-04T01:40:51.259Z,100761.81
2022-08-04T01:46:27.432Z,100744.97
2022-08-04T01:48:59.316Z,100750.88
2022-08-04T01:51:28.393Z,100756.59
2022-08-04T01:53:56.371Z,100764.72
2022-08-04T01:56:28.273Z,100756.59
2022-08-04T01:59:02.965Z,100760.09
2022-08-04T02:01:36.049Z,100747.78
2022-08-04T02:04:18.259Z,100753.03
2022-08-04T02:07:36.201Z,100751.63
2022-08-04T02:10:15.251Z,100749.28
2022-08-04T02:17:48.154Z,100745.59
2022-08-04T02:20:32.657Z,100746.97
2022-08-04T02:23:21.878Z,100742.75
2022-08-04T02:26:03.776Z,100745.97
2022-08-04T02:29:54.692Z,100727.56
2022-08-04T02:32:43.318Z,100736.63
2022-08-04T02:35:31.259Z,100736.13
2022-08-04T02:39:04.826Z,100734.13
2022-08-04T02:45:31.023Z,100731.31
2022-08-04T02:52:08.338Z,100724.22
2022-08-04T02:54:47.475Z,100718.28
2022-08-04T02:57:58.457Z,100729.59
2022-08-04T03:01:05.145Z,100728.97
2022-08-04T03:04:11.240Z,100728.72
2022-08-04T03:07:26.052Z,100735.03
2022-08-04T03:10:50.781Z,100727.94
2022-08-04T03:14:46.332Z,100730.13
2022-08-04T03:18:48.046Z,100734.59
2022-08-04T03:22:15.094Z,100732.19
2022-08-04T03:26:10.398Z,100738.28
2022-08-04T03:29:47.161Z,100742.19
2022-08-04T03:33:21.078Z,100736.19
2022-08-04T03:36:12.267Z,100741.28
2022-08-04T03:39:33.727Z,100737.63
2022-08-04T03:43:10.403Z,100736.59
2022-08-04T03:46:41.585Z,100739.53
2022-08-04T03:50:38.272Z,100740.41
2022-08-04T03:53:43.271Z,100738.66
2022-08-04T03:57:18.016Z,100733.84
2022-08-04T04:04:42.527Z,100736.56
2022-08-04T04:08:36.442Z,100731.88
2022-08-04T04:12:12.310Z,100731.25
2022-08-04T04:24:39.640Z,100733.59
2022-08-04T04:28:44.661Z,100735.63
2022-08-04T04:32:39.753Z,100734.25
2022-08-04T04:35:34.548Z,100733.72
2022-08-04T04:48:11.852Z,100739.59
2022-08-04T04:51:44.927Z,100747.41
2022-08-04T04:55:20.803Z,100743.59
2022-08-04T05:02:15.256Z,100735.09
2022-08-04T05:14:35.736Z,100738.88
2022-08-04T05:17:30.844Z,100736.47
2022-08-04T05:21:09.406Z,100742.09
2022-08-04T05:24:18.021Z,100746.94
2022-08-04T05:27:55.404Z,100745.16
2022-08-04T05:37:34.235Z,100739.25
2022-08-04T05:43:30.992Z,100739.75
2022-08-04T05:46:26.540Z,100746.41
2022-08-04T05:49:11.408Z,100739.97
2022-08-04T05:51:51.251Z,100737.75
2022-08-04T05:55:08.467Z,100736.75
2022-08-04T06:01:25.239Z,100744.59
2022-08-04T06:03:57.038Z,100739.66
2022-08-04T06:14:05.333Z,100740.13
2022-08-04T06:18:34.031Z,100749.81
2022-08-04T06:29:27.132Z,100737.56
2022-08-04T06:33:04.203Z,100747.31
2022-08-04T06:35:38.330Z,100745.97
2022-08-04T06:38:08.636Z,100747.13
2022-08-04T06:41:14.875Z,100744.34
2022-08-04T06:43:43.870Z,100748.00
2022-08-04T06:46:17.916Z,100739.13
2022-08-04T06:49:00.475Z,100744.94
2022-08-04T06:51:40.984Z,100751.00
2022-08-04T06:54:23.628Z,100745.13
2022-08-04T06:57:23.057Z,100744.38
2022-08-04T07:03:37.541Z,100736.84
2022-08-04T07:06:14.053Z,100735.31
2022-08-04T07:09:13.696Z,100742.16
2022-08-04T07:11:44.681Z,100733.03
2022-08-04T07:14:15.338Z,100743.84
2022-08-04T07:16:50.246Z,100745.94
2022-08-04T07:19:19.196Z,100743.91
2022-08-04T07:22:16.247Z,100738.31
2022-08-04T07:24:41.764Z,100740.06
2022-08-04T07:27:09.881Z,100730.75
2022-08-04T07:29:38.694Z,100725.13
2022-08-04T07:32:08.230Z,100726.84
2022-08-04T07:34:42.400Z,100732.03
2022-08-04T07:37:10.082Z,100727.84
2022-08-04T07:39:50.714Z,100726.44
2022-08-04T07:42:24.670Z,100727.88
2022-08-04T07:44:51.865Z,100725.72
2022-08-04T07:47:23.529Z,100726.59
2022-08-04T07:49:58.036Z,100727.84
2022-08-04T07:52:31.206Z,100722.63
2022-08-04T07:54:58.890Z,100724.13
2022-08-04T07:57:41.174Z,100722.22
2022-08-04T08:00:14.746Z,100726.78
2022-08-04T08:02:50.628Z,100722.63
2022-08-04T08:05:25.459Z,100721.44
2022-08-04T08:08:00.386Z,100717.44
2022-08-04T08:10:27.410Z,100723.72
2022-08-04T08:12:58.351Z,100715.56
2022-08-04T08:15:29.584Z,100714.66
2022-08-04T08:17:59.812Z,100703.75
2022-08-04T08:20:32.382Z,100707.34
2022-08-04T08:23:02.885Z,100701.13
2022-08-04T08:25:35.701Z,100701.41
2022-08-04T08:28:08.308Z,100705.41
2022-08-04T08:30:35.796Z,100697.69
2022-08-04T08:33:09.739Z,100702.38
2022-08-04T08:36:09.994Z,100696.53
2022-08-04T08:39:53.907Z,100699.50
2022-08-04T08:42:59.330Z,100698.38
2022-08-04T08:47:00.410Z,100690.09
2022-08-04T08:50:04.479Z,100685.34
2022-08-04T08:53:30.487Z,100689.88
2022-08-04T08:56:18.972Z,100687.56
2022-08-04T08:59:28.556Z,100685.28
2022-08-04T09:03:06.163Z,100686.44
2022-08-04T09:06:28.469Z,100691.13
2022-08-04T09:09:44.407Z,100685.16
2022-08-04T09:12:42.318Z,100679.38
2022-08-04T09:15:24.235Z,100681.81
2022-08-04T09:18:40.730Z,100684.91
2022-08-04T09:21:33.901Z,100682.47
2022-08-04T09:24:37.140Z,100681.13
2022-08-04T09:27:31.401Z,100678.34
2022-08-04T09:30:35.370Z,100681.78
2022-08-04T09:33:45.836Z,100676.63
2022-08-04T09:36:51.699Z,100674.59
2022-08-04T09:39:39.570Z,100670.41
2022-08-04T09:42:34.824Z,100661.41
2022-08-04T09:45:43.283Z,100667.38
2022-08-04T09:49:04.224Z,100667.31
2022-08-04T09:52:36.419Z,100669.06
2022-08-04T09:55:53.566Z,100663.28
2022-08-04T09:59:34.853Z,100670.63
2022-08-04T10:02:09.531Z,100663.00
2022-08-04T10:04:39.574Z,100663.19
2022-08-04T10:08:15.256Z,100657.25
2022-08-04T10:11:11.538Z,100660.75
2022-08-04T10:14:05.354Z,100653.75
2022-08-04T10:17:07.647Z,100651.75
2022-08-04T10:19:40.519Z,100649.31
2022-08-04T10:23:10.750Z,100644.63
2022-08-04T10:26:20.161Z,100647.50
2022-08-04T10:29:41.356Z,100639.06
2022-08-04T10:32:43.142Z,100639.13
2022-08-04T10:35:37.941Z,100637.56
2022-08-04T10:38:40.612Z,100630.38
2022-08-04T10:41:56.382Z,100634.97
2022-08-04T10:44:48.232Z,100633.25
2022-08-04T10:47:24.809Z,100628.13
2022-08-04T10:50:00.283Z,100629.88
2022-08-04T10:52:39.504Z,100618.06
2022-08-04T10:55:18.957Z,100624.47
2022-08-04T10:58:02.962Z,100627.91
2022-08-04T11:00:35.789Z,100618.31
2022-08-04T11:03:31.263Z,100613.84
2022-08-04T11:05:59.647Z,100614.09
2022-08-04T11:08:54.773Z,100612.53
2022-08-04T11:12:00.684Z,100609.16
2022-08-04T11:14:41.841Z,100597.41
2022-08-04T11:17:45.053Z,100598.88
2022-08-04T11:20:50.490Z,100607.66
2022-08-04T11:23:23.905Z,100598.69
2022-08-04T11:26:36.753Z,100599.31
2022-08-04T11:29:22.384Z,100598.25
2022-08-04T11:31:52.579Z,100589.03
2022-08-04T11:34:27.699Z,100589.50
2022-08-04T11:37:22.134Z,100596.31
2022-08-04T11:40:04.186Z,100591.16
2022-08-04T11:42:49.984Z,100598.88
2022-08-04T11:45:34.118Z,100587.03
2022-08-04T11:48:22.867Z,100578.78
2022-08-04T11:50:55.227Z,100585.19
2022-08-04T11:53:36.505Z,100583.06
2022-08-04T11:56:32.354Z,100601.88
2022-08-04T11:59:04.277Z,100595.81
2022-08-04T12:02:02.191Z,100591.97
2022-08-04T12:04:57.340Z,100582.56
2022-08-04T12:07:55.089Z,100579.19
2022-08-04T12:11:13.518Z,100581.50
2022-08-04T12:14:13.238Z,100569.97
2022-08-04T12:17:03.702Z,100570.22
2022-08-04T12:20:03.705Z,100565.66
2022-08-04T12:22:41.969Z,100559.56
2022-08-04T12:25:44.860Z,100555.78
2022-08-04T12:29:13.308Z,100559.03
2022-08-04T12:32:11.771Z,100562.03
2022-08-04T12:35:09.302Z,100561.31
2022-08-04T12:38:04.504Z,100560.47
2022-08-04T12:40:56.987Z,100562.50
2022-08-04T12:43:39.630Z,100548.59
2022-08-04T12:46:13.074Z,100549.13
2022-08-04T12:48:47.276Z,100550.81
2022-08-04T12:51:30.972Z,100541.34
2022-08-04T12:54:03.476Z,100543.97
2022-08-04T12:56:32.526Z,100547.19
2022-08-04T12:59:12.476Z,100539.56
2022-08-04T13:02:09.235Z,100535.31
2022-08-04T13:04:38.242Z,100531.06
2022-08-04T13:07:22.561Z,100523.19
2022-08-04T13:09:51.666Z,100524.53
2022-08-04T13:12:32.291Z,100529.75
2022-08-04T13:15:18.609Z,100525.38
2022-08-04T13:18:14.868Z,100518.31
2022-08-04T13:20:44.754Z,100522.94
2022-08-04T13:23:21.522Z,100512.13
2022-08-04T13:26:42.491Z,100520.75
2022-08-04T13:28:48.162Z,100513.25
2022-08-04T13:31:21.871Z,100517.00
2022-08-04T13:34:02.299Z,100508.16
2022-08-04T13:36:32.386Z,100508.94
2022-08-04T13:39:08.733Z,100509.41
2022-08-04T13:41:43.163Z,100505.00
2022-08-04T13:44:18.474Z,100502.16
2022-08-04T13:46:55.261Z,100501.78
2022-08-04T13:49:38.117Z,100495.94
2022-08-04T13:52:10.480Z,100496.44
2022-08-04T13:54:44.773Z,100498.38
2022-08-04T13:57:27.852Z,100495.75
2022-08-04T14:00:08.729Z,100490.53
2022-08-04T14:02:52.539Z,100488.53
2022-08-04T14:05:30.381Z,100475.34
2022-08-04T14:08:26.668Z,100480.78
2022-08-04T14:10:57.826Z,100469.56
2022-08-04T14:13:41.405Z,100462.88
2022-08-04T14:16:22.051Z,100457.06
2022-08-04T14:19:01.757Z,100464.78
2022-08-04T14:21:35.477Z,100464.66
2022-08-04T14:24:02.508Z,100457.97
2022-08-04T14:26:34.696Z,100458.41
2022-08-04T14:29:26.621Z,100449.94
2022-08-04T14:32:12.747Z,100442.97
2022-08-04T14:34:45.460Z,100446.69
2022-08-04T14:37:20.534Z,100448.72
2022-08-04T14:40:07.570Z,100447.44
2022-08-04T14:42:55.556Z,100438.44
2022-08-04T14:45:55.526Z,100435.84
2022-08-04T14:48:23.177Z,100447.44
2022-08-04T14:50:51.164Z,100446.19
2022-08-04T14:53:29.389Z,100431.41
2022-08-04T14:56:00.075Z,100438.41
2022-08-04T14:58:39.040Z,100426.41
2022-08-04T15:01:12.241Z,100429.72
2022-08-04T15:03:50.182Z,100427.88
2022-08-04T15:06:27.087Z,100429.09
2022-08-04T15:08:59.269Z,100427.34
2022-08-04T15:11:28.388Z,100429.28
2022-08-04T15:13:57.963Z,100426.31
2022-08-04T15:16:29.376Z,100434.09
2022-08-04T15:18:57.607Z,100424.09
2022-08-04T15:21:29.730Z,100422.56
2022-08-04T15:23:58.829Z,100417.09
2022-08-04T15:26:41.384Z,100412.84
2022-08-04T15:30:00.416Z,100414.09
2022-08-04T15:32:33.060Z,100414.59
2022-08-04T15:35:39.076Z,100425.09
2022-08-04T15:38:31.043Z,100406.00
2022-08-04T15:41:20.081Z,100398.78
2022-08-04T15:44:12.957Z,100396.75
2022-08-04T15:46:51.333Z,100402.59
2022-08-04T15:49:25.851Z,100395.09
2022-08-04T15:52:11.951Z,100397.00
2022-08-04T15:54:42.415Z,100401.25
2022-08-04T15:58:05.329Z,100395.47
2022-08-04T16:00:50.264Z,100391.06
2022-08-04T16:03:58.106Z,100390.72
2022-08-04T16:06:22.503Z,100382.56
2022-08-04T16:08:57.998Z,100380.75
2022-08-04T16:11:31.144Z,100389.38
2022-08-04T16:13:59.009Z,100378.81
2022-08-04T16:16:38.500Z,100379.75
2022-08-04T16:19:41.438Z,100383.28
2022-08-04T16:22:31.017Z,100393.84
2022-08-04T16:24:58.208Z,100384.03
2022-08-04T16:27:45.419Z,100386.44
2022-08-04T16:30:15.916Z,100385.31
2022-08-04T16:32:48.631Z,100381.53
2022-08-04T16:35:26.249Z,100383.19
2022-08-04T16:38:15.442Z,100376.34
2022-08-04T16:40:46.756Z,100383.00
2022-08-04T16:43:17.642Z,100383.66
2022-08-04T16:45:55.695Z,100386.53
2022-08-04T16:48:31.558Z,100390.81
2022-08-04T16:51:12.954Z,100382.25
2022-08-04T16:53:53.172Z,100374.06
2022-08-04T16:56:35.378Z,100373.56
2022-08-04T16:59:11.988Z,100369.25
2022-08-04T17:01:51.966Z,100379.25
2022-08-04T17:04:30.468Z,100378.69
2022-08-04T17:07:06.115Z,100374.50
2022-08-04T17:09:33.499Z,100370.81
2022-08-04T17:12:02.110Z,100372.59
2022-08-04T17:14:31.387Z,100377.88
2022-08-04T17:17:02.426Z,100375.97
2022-08-04T17:19:29.506Z,100374.19
2022-08-04T17:22:10.339Z,100372.53
2022-08-04T17:24:40.677Z,100373.13
2022-08-04T17:28:19.217Z,100375.66
2022-08-04T17:29:55.679Z,100383.28
2022-08-04T17:32:24.023Z,100376.16
2022-08-04T17:34:59.179Z,100386.06
2022-08-04T17:37:38.910Z,100376.00
2022-08-04T17:40:22.758Z,100378.13
2022-08-04T17:44:04.634Z,100380.09
2022-08-04T17:46:43.215Z,100375.09
2022-08-04T17:49:16.802Z,100370.56
2022-08-04T17:52:04.647Z,100381.41
2022-08-04T17:54:40.395Z,100388.50
2022-08-04T17:57:15.209Z,100389.81
2022-08-04T18:03:02.788Z,100372.13
2022-08-04T18:05:50.268Z,100376.50
2022-08-04T18:08:38.345Z,100372.06
2022-08-04T18:11:05.537Z,100374.69
2022-08-04T18:13:42.818Z,100365.69
2022-08-04T18:16:21.852Z,100364.41
2022-08-04T18:19:15.288Z,100369.19
2022-08-04T18:21:45.724Z,100361.66
2022-08-04T18:24:34.448Z,100365.66
2022-08-04T18:27:06.602Z,100363.88
2022-08-04T18:29:39.343Z,100362.88
2022-08-04T18:32:09.322Z,100361.66
2022-08-04T18:34:40.717Z,100372.97
2022-08-04T18:38:05.488Z,100378.75
2022-08-04T18:40:26.578Z,100370.84
2022-08-04T18:43:00.104Z,100371.03
2022-08-04T18:45:34.506Z,100370.88
2022-08-04T18:48:14.629Z,100381.34
2022-08-04T18:51:09.072Z,100385.31
2022-08-04T18:53:35.413Z,100382.56
2022-08-04T18:56:19.941Z,100382.72
2022-08-04T18:58:53.616Z,100392.34
2022-08-04T19:01:21.549Z,100390.16
2022-08-04T19:03:58.051Z,100379.59
2022-08-04T19:06:25.984Z,100386.44
2022-08-04T19:08:54.477Z,100381.56
2022-08-04T19:11:38.280Z,100382.78
2022-08-04T19:14:13.736Z,100383.94
2022-08-04T19:16:41.340Z,100389.28
2022-08-04T19:19:13.790Z,100391.94
2022-08-04T19:21:59.386Z,100386.06
2022-08-04T19:24:34.441Z,100384.72
2022-08-04T19:27:07.368Z,100390.78
2022-08-04T19:29:41.051Z,100388.75
2022-08-04T19:32:14.593Z,100391.09
2022-08-04T19:34:47.872Z,100401.22
2022-08-04T19:37:57.097Z,100403.22
2022-08-04T19:40:09.942Z,100398.81
2022-08-04T19:42:37.985Z,100406.03
2022-08-04T19:45:06.783Z,100405.00
2022-08-04T19:48:12.017Z,100406.41
2022-08-04T19:50:23.857Z,100410.53
2022-08-04T19:52:52.669Z,100405.25
2022-08-04T19:55:37.776Z,100405.53
2022-08-04T19:58:12.296Z,100410.16
2022-08-04T20:00:50.860Z,100405.13
2022-08-04T20:03:20.257Z,100405.28
2022-08-04T20:05:53.234Z,100416.53
2022-08-04T20:08:31.666Z,100402.13
2022-08-04T20:10:59.980Z,100395.22
2022-08-04T20:13:37.152Z,100398.41
2022-08-04T20:16:28.341Z,100407.91
2022-08-04T20:19:00.746Z,100404.16
2022-08-04T20:21:55.641Z,100402.28
2022-08-04T20:24:40.482Z,100401.13
2022-08-04T20:27:22.061Z,100404.31
2022-08-04T20:29:55.528Z,100408.41
2022-08-04T20:32:26.718Z,100412.66
2022-08-04T20:34:57.002Z,100398.78
2022-08-04T20:40:14.617Z,100400.00
2022-08-04T20:42:45.018Z,100407.19
2022-08-04T20:45:16.297Z,100398.69
2022-08-04T20:47:45.982Z,100407.91
2022-08-04T20:50:29.783Z,100403.00
2022-08-04T20:52:58.688Z,100400.72
2022-08-04T20:55:29.776Z,100396.50
2022-08-04T20:58:02.511Z,100402.28
2022-08-04T21:00:31.363Z,100403.00
2022-08-04T21:03:01.689Z,100404.72
2022-08-04T21:05:29.277Z,100397.47
2022-08-04T21:07:59.169Z,100397.25
2022-08-04T21:10:27.221Z,100401.78
2022-08-04T21:12:54.729Z,100405.03
2022-08-04T21:15:25.573Z,100409.06
2022-08-04T21:17:56.597Z,100402.59
2022-08-04T21:20:27.963Z,100409.94
2022-08-04T21:22:55.766Z,100431.53
2022-08-04T21:25:27.056Z,100439.75
2022-08-04T21:27:54.005Z,100434.88
2022-08-04T21:30:23.892Z,100444.28
2022-08-04T21:32:52.104Z,100443.09
2022-08-04T21:35:19.524Z,100442.94
2022-08-04T21:37:58.165Z,100439.31
2022-08-04T21:40:36.849Z,100433.59
2022-08-04T21:43:07.615Z,100431.91
2022-08-04T21:45:36.460Z,100443.13
2022-08-04T21:48:05.405Z,100435.00
2022-08-04T21:50:32.362Z,100443.03
2022-08-04T21:52:59.299Z,100446.41
2022-08-04T21:56:05.111Z,100448.53
2022-08-04T21:58:13.644Z,100440.44
2022-08-04T22:00:41.501Z,100445.81
2022-08-04T22:03:21.229Z,100441.81
2022-08-04T22:05:56.827Z,100436.28
2022-08-04T22:08:23.867Z,100425.66
2022-08-04T22:10:57.771Z,100427.22
2022-08-04T22:14:10.573Z,100436.16
2022-08-04T22:16:11.957Z,100431.56
2022-08-04T22:18:38.895Z,100443.97
2022-08-04T22:21:09.661Z,100440.22
2022-08-04T22:23:45.654Z,100438.59
2022-08-04T22:26:26.706Z,100438.84
2022-08-04T22:28:56.147Z,100428.47
2022-08-04T22:31:25.508Z,100420.63
2022-08-04T22:33:56.142Z,100421.34
2022-08-04T22:36:24.800Z,100422.16
2022-08-04T22:39:04.369Z,100417.97
2022-08-04T22:41:48.605Z,100425.81
2022-08-04T22:44:16.326Z,100424.03
2022-08-04T22:46:43.371Z,100415.34
2022-08-04T22:49:12.730Z,100418.78
2022-08-04T22:51:39.847Z,100420.50
2022-08-04T22:54:15.405Z,100412.78
2022-08-04T22:56:42.420Z,100420.69
2022-08-04T22:59:13.026Z,100420.22
2022-08-04T23:01:59.602Z,100409.78
2022-08-04T23:04:32.955Z,100414.66
2022-08-04T23:07:09.287Z,100415.19
2022-08-04T23:09:51.129Z,100411.38
2022-08-04T23:12:27.201Z,100410.75
2022-08-04T23:14:57.279Z,100418.00
2022-08-04T23:17:27.524Z,100411.03
2022-08-04T23:19:59.677Z,100413.16
2022-08-04T23:22:42.178Z,100419.44
2022-08-04T23:25:15.282Z,100420.00
2022-08-04T23:27:43.769Z,100404.16
2022-08-04T23:30:11.963Z,100407.06
2022-08-04T23:32:40.817Z,100402.09
2022-08-04T23:35:09.301Z,100404.72
2022-08-04T23:37:36.591Z,100399.38
2022-08-04T23:40:32.696Z,100394.63
2022-08-04T23:43:17.356Z,100397.59
2022-08-04T23:46:04.342Z,100399.16
2022-08-04T23:48:39.491Z,100389.28
2022-08-04T23:51:14.813Z,100390.97
2022-08-04T23:54:02.152Z,100396.66
2022-08-04T23:56:34.576Z,100402.34
2022-08-04T23:59:04.413Z,100402.59
